createdAt,value
2023-10-23T00:06:59.200Z,1.45
2023-10-23T00:17:00.664Z,1.50
2023-10-23T00:27:02.034Z,1.52
2023-10-23T00:37:03.302Z,1.45
2023-10-23T00:47:04.592Z,1.55
2023-10-23T00:57:05.858Z,1.60
2023-10-23T01:07:07.172Z,1.40
2023-10-23T01:17:08.485Z,1.60
2023-10-23T01:27:09.783Z,1.50
2023-10-23T01:37:11.054Z,1.40
2023-10-23T01:47:12.293Z,1.30
2023-10-23T01:57:20.805Z,1.30
2023-10-23T02:07:22.089Z,1.30
2023-10-23T02:17:23.417Z,1.30
2023-10-23T02:27:24.702Z,1.40
2023-10-23T02:37:25.972Z,1.42
2023-10-23T02:47:27.341Z,1.20
2023-10-23T02:57:28.644Z,1.60
2023-10-23T03:07:29.901Z,1.50
2023-10-23T03:17:31.304Z,1.23
2023-10-23T03:27:32.650Z,1.42
2023-10-23T03:37:33.919Z,1.45
2023-10-23T03:47:35.214Z,1.30
2023-10-23T03:57:36.532Z,1.30
2023-10-23T04:07:37.868Z,1.38
2023-10-23T04:17:39.181Z,1.20
2023-10-23T04:27:40.495Z,1.10
2023-10-23T04:37:41.863Z,1.23
2023-10-23T04:47:43.162Z,1.30
2023-10-23T04:57:44.499Z,1.30
2023-10-23T05:07:45.806Z,1.10
2023-10-23T05:17:47.105Z,1.30
2023-10-23T05:27:48.506Z,1.10
2023-10-23T05:37:49.785Z,1.20
2023-10-23T05:47:51.085Z,1.17
2023-10-23T05:57:52.427Z,1.38
2023-10-23T06:07:53.696Z,1.38
2023-10-23T06:17:54.995Z,1.40
2023-10-23T06:27:56.298Z,1.35
2023-10-23T06:37:57.601Z,1.30
2023-10-23T06:47:59.039Z,1.40
2023-10-23T06:58:00.371Z,1.17
2023-10-23T07:08:01.643Z,1.20
2023-10-23T07:18:03.015Z,1.50
2023-10-23T07:28:04.377Z,1.20
2023-10-23T07:38:05.684Z,1.77
2023-10-23T07:48:07.007Z,1.63
2023-10-23T07:58:08.341Z,1.45
2023-10-23T08:08:09.662Z,1.63
2023-10-23T08:18:22.233Z,1.50
2023-10-23T08:28:49.458Z,1.42
2023-10-23T08:38:52.897Z,1.43
2023-10-23T08:48:54.201Z,1.70
2023-10-23T08:58:55.489Z,1.63
2023-10-23T09:08:56.798Z,1.60
2023-10-23T09:18:58.114Z,1.55
2023-10-23T09:28:59.478Z,1.75
2023-10-23T09:39:00.847Z,1.50
2023-10-23T09:49:02.386Z,1.50
2023-10-23T09:59:03.861Z,1.52
2023-10-23T10:09:05.143Z,1.70
2023-10-23T10:19:06.397Z,1.40
2023-10-23T10:29:07.687Z,1.58
2023-10-23T10:39:08.928Z,1.75
2023-10-23T10:49:10.274Z,1.73
2023-10-23T10:59:11.597Z,1.63
2023-10-23T11:09:12.878Z,1.83
2023-10-23T11:19:14.238Z,1.60
2023-10-23T11:29:15.568Z,1.70
2023-10-23T11:39:16.834Z,1.63
2023-10-23T11:49:18.182Z,1.42
2023-10-23T11:59:19.531Z,1.80
2023-10-23T12:09:20.809Z,1.70
2023-10-23T12:19:22.096Z,1.40
2023-10-23T12:29:23.378Z,1.60
2023-10-23T12:39:24.635Z,1.85
2023-10-23T12:49:25.935Z,1.58
2023-10-23T12:59:27.210Z,1.58
2023-10-23T13:09:28.504Z,1.65
2023-10-23T13:19:29.830Z,1.80
2023-10-23T13:29:31.117Z,1.52
2023-10-23T13:39:32.402Z,1.55
2023-10-23T13:49:40.104Z,1.40
2023-10-23T13:59:47.974Z,1.60
2023-10-23T14:09:56.010Z,1.42
2023-10-23T14:20:04.063Z,1.45
2023-10-23T14:30:12.001Z,1.33
2023-10-23T14:40:19.994Z,1.42
2023-10-23T14:50:28.013Z,1.80
2023-10-23T15:00:35.998Z,1.70
2023-10-23T15:10:44.005Z,1.88
2023-10-23T15:20:51.997Z,1.52
2023-10-23T15:31:01.089Z,1.40
2023-10-23T15:41:09.214Z,1.48
2023-10-23T15:51:10.585Z,1.30
2023-10-23T16:01:11.955Z,1.55
2023-10-23T16:11:13.311Z,1.50
2023-10-23T16:21:14.652Z,1.83
2023-10-23T16:31:16.054Z,1.60
2023-10-23T16:41:17.446Z,2.03
2023-10-23T16:51:18.725Z,1.65
2023-10-23T17:01:20.043Z,1.95
2023-10-23T17:11:21.408Z,1.92
2023-10-23T17:21:22.678Z,1.90
2023-10-23T17:31:24.068Z,2.28
2023-10-23T17:41:25.413Z,2.17
2023-10-23T17:51:26.669Z,2.15
2023-10-23T18:01:28.067Z,2.20
2023-10-23T18:11:29.552Z,2.05
2023-10-23T18:21:30.804Z,2.03
2023-10-23T18:31:32.148Z,2.33
2023-10-23T18:41:33.475Z,1.85
2023-10-23T18:51:34.890Z,2.10
2023-10-23T19:01:36.277Z,2.17
2023-10-23T19:11:37.641Z,1.95
2023-10-23T19:21:38.909Z,1.92
2023-10-23T19:31:40.352Z,1.70
2023-10-23T19:41:41.687Z,2.08
2023-10-23T19:51:43.069Z,1.90
2023-10-23T20:01:44.394Z,1.67
2023-10-23T20:11:45.703Z,1.70
2023-10-23T20:21:47.004Z,1.45
2023-10-23T20:31:48.398Z,1.77
2023-10-23T20:41:49.722Z,1.70
2023-10-23T20:51:50.966Z,1.88
2023-10-23T21:01:52.310Z,1.60
2023-10-23T21:11:53.662Z,1.60
2023-10-23T21:21:54.945Z,1.50
2023-10-23T21:31:56.383Z,1.67
2023-10-23T21:41:57.829Z,1.33
2023-10-23T21:51:59.123Z,1.70
2023-10-23T22:02:00.415Z,1.40
2023-10-23T22:12:01.794Z,1.38
2023-10-23T22:22:03.121Z,1.50
2023-10-23T22:32:04.468Z,1.33
2023-10-23T22:42:20.832Z,1.42
2023-10-23T22:52:22.114Z,1.77
2023-10-23T23:02:23.417Z,1.40
2023-10-23T23:12:24.705Z,1.40
2023-10-23T23:22:26.032Z,1.48
2023-10-23T23:32:27.424Z,1.60
2023-10-23T23:42:28.748Z,1.60
2023-10-23T23:52:30.059Z,1.60
